createdAt,value
2023-01-20T00:02:00.204Z,1.30
2023-01-20T00:04:32.792Z,1.02
2023-01-20T00:07:05.265Z,0.88
2023-01-20T00:09:37.828Z,0.60
2023-01-20T00:12:10.421Z,1.00
2023-01-20T00:14:43.036Z,0.88
2023-01-20T00:17:15.653Z,1.13
2023-01-20T00:19:48.246Z,1.23
2023-01-20T00:22:22.442Z,1.42
2023-01-20T00:24:54.973Z,1.02
2023-01-20T00:27:27.547Z,1.05
2023-01-20T00:30:00.182Z,1.05
2023-01-20T00:32:44.887Z,0.90
2023-01-20T00:35:17.591Z,1.00
2023-01-20T00:37:50.149Z,0.98
2023-01-20T00:40:22.716Z,1.00
2023-01-20T00:42:55.216Z,1.10
2023-01-20T00:45:27.797Z,1.43
2023-01-20T00:48:00.310Z,1.10
2023-01-20T00:50:32.856Z,1.10
2023-01-20T00:53:05.513Z,1.50
2023-01-20T00:55:38.108Z,1.38
2023-01-20T00:58:10.885Z,1.38
2023-01-20T01:00:43.870Z,1.27
2023-01-20T01:03:16.818Z,1.15
2023-01-20T01:05:49.426Z,0.77
2023-01-20T01:08:21.965Z,1.07
2023-01-20T01:10:56.557Z,0.95
2023-01-20T01:13:29.189Z,1.02
2023-01-20T01:16:04.602Z,0.70
2023-01-20T01:18:40.449Z,1.17
2023-01-20T01:21:16.103Z,0.85
2023-01-20T01:23:48.849Z,1.35
2023-01-20T01:26:24.445Z,1.17
2023-01-20T01:28:59.977Z,1.00
2023-01-20T01:31:32.606Z,0.80
2023-01-20T01:34:05.398Z,1.20
2023-01-20T01:36:38.030Z,1.00
2023-01-20T01:39:10.541Z,1.00
2023-01-20T01:41:43.269Z,1.00
2023-01-20T01:44:16.241Z,1.23
2023-01-20T01:46:48.961Z,1.40
2023-01-20T01:49:30.692Z,1.10
2023-01-20T01:52:10.391Z,1.50
2023-01-20T01:54:45.773Z,1.10
2023-01-20T01:57:18.508Z,0.95
2023-01-20T01:59:51.877Z,0.98
2023-01-20T02:04:57.227Z,1.20
2023-01-20T02:07:32.315Z,1.30
2023-01-20T02:10:05.302Z,1.40
2023-01-20T02:12:38.231Z,1.13
2023-01-20T02:15:11.253Z,1.30
2023-01-20T02:18:17.397Z,1.17
2023-01-20T02:21:22.909Z,1.40
2023-01-20T02:24:38.899Z,1.30
2023-01-20T02:27:19.976Z,1.30
2023-01-20T02:30:38.893Z,1.27
2023-01-20T02:33:21.606Z,1.70
2023-01-20T02:35:59.454Z,1.10
2023-01-20T02:39:04.296Z,1.20
2023-01-20T02:41:39.644Z,1.13
2023-01-20T02:44:12.104Z,1.05
2023-01-20T02:46:54.487Z,1.17
2023-01-20T02:49:52.176Z,1.30
2023-01-20T02:52:31.633Z,1.13
2023-01-20T02:55:15.129Z,1.42
2023-01-20T02:57:52.603Z,1.27
2023-01-20T03:00:34.606Z,1.20
2023-01-20T03:03:12.919Z,1.38
2023-01-20T03:05:52.324Z,1.23
2023-01-20T03:08:28.671Z,1.10
2023-01-20T03:11:07.305Z,1.10
2023-01-20T03:13:49.474Z,1.05
2023-01-20T03:16:24.677Z,1.15
2023-01-20T03:18:57.283Z,1.20
2023-01-20T03:21:29.894Z,1.27
2023-01-20T03:24:04.864Z,1.83
2023-01-20T03:26:38.273Z,0.98
2023-01-20T03:31:53.571Z,1.10
2023-01-20T03:34:28.522Z,1.20
2023-01-20T03:37:02.807Z,1.30
2023-01-20T03:39:40.037Z,1.15
2023-01-20T03:42:21.697Z,1.20
2023-01-20T03:45:05.779Z,1.42
2023-01-20T03:47:59.878Z,1.40
2023-01-20T03:50:35.271Z,1.10
2023-01-20T03:53:19.268Z,1.45
2023-01-20T03:56:14.980Z,1.38
2023-01-20T03:58:51.147Z,1.25
2023-01-20T04:01:31.082Z,1.42
2023-01-20T04:04:08.824Z,1.25
2023-01-20T04:06:43.948Z,1.40
2023-01-20T04:09:25.216Z,1.55
2023-01-20T04:11:57.721Z,1.40
2023-01-20T04:14:30.463Z,1.73
2023-01-20T04:17:04.943Z,1.45
2023-01-20T04:19:40.486Z,1.60
2023-01-20T04:22:31.891Z,1.20
2023-01-20T04:25:15.608Z,1.50
2023-01-20T04:27:48.368Z,1.50
2023-01-20T04:30:20.963Z,1.25
2023-01-20T04:32:53.567Z,1.15
2023-01-20T04:35:26.236Z,1.20
2023-01-20T04:37:58.783Z,1.50
2023-01-20T04:40:31.656Z,1.20
2023-01-20T04:43:04.329Z,1.50
2023-01-20T04:45:36.998Z,1.45
2023-01-20T04:48:10.325Z,1.20
2023-01-20T04:50:44.162Z,1.20
2023-01-20T04:53:19.531Z,0.90
2023-01-20T04:55:52.104Z,0.90
2023-01-20T04:58:24.753Z,1.13
2023-01-20T05:00:57.288Z,1.48
2023-01-20T05:03:29.820Z,1.30
2023-01-20T05:06:02.355Z,1.13
2023-01-20T05:08:34.959Z,1.20
2023-01-20T05:11:07.685Z,1.15
2023-01-20T05:13:40.557Z,1.17
2023-01-20T05:16:13.401Z,1.50
2023-01-20T05:18:45.975Z,1.30
2023-01-20T05:21:18.604Z,1.00
2023-01-20T05:23:53.288Z,1.10
2023-01-20T05:26:26.774Z,1.40
2023-01-20T05:28:59.293Z,1.27
2023-01-20T05:31:32.447Z,1.67
2023-01-20T05:34:05.353Z,1.55
2023-01-20T05:36:38.017Z,1.58
2023-01-20T05:39:10.597Z,1.65
2023-01-20T05:41:43.252Z,1.40
2023-01-20T05:44:16.161Z,1.60
2023-01-20T05:46:48.859Z,1.88
2023-01-20T05:49:21.386Z,1.70
2023-01-20T05:51:54.015Z,1.80
2023-01-20T05:54:26.694Z,1.80
2023-01-20T05:56:59.784Z,1.80
2023-01-20T05:59:32.346Z,1.40
2023-01-20T06:02:04.868Z,1.80
2023-01-20T06:04:37.675Z,1.25
2023-01-20T06:07:10.290Z,1.13
2023-01-20T06:09:42.918Z,1.60
2023-01-20T06:12:18.260Z,1.63
2023-01-20T06:14:52.556Z,1.38
2023-01-20T06:17:25.141Z,1.63
2023-01-20T06:19:57.708Z,1.45
2023-01-20T06:22:30.335Z,2.10
2023-01-20T06:25:02.938Z,1.65
2023-01-20T06:27:35.784Z,1.98
2023-01-20T06:30:09.155Z,1.80
2023-01-20T06:35:14.484Z,1.50
2023-01-20T06:37:47.399Z,1.67
2023-01-20T06:40:19.978Z,1.90
2023-01-20T06:42:52.449Z,2.15
2023-01-20T06:45:25.045Z,2.17
2023-01-20T06:47:57.557Z,1.60
2023-01-20T06:50:30.140Z,1.37
2023-01-20T06:53:03.400Z,1.67
2023-01-20T06:58:08.436Z,1.55
2023-01-20T07:00:41.246Z,1.77
2023-01-20T07:03:14.211Z,1.73
2023-01-20T07:06:07.831Z,2.10
2023-01-20T07:08:40.402Z,1.63
2023-01-20T07:11:13.344Z,2.20
2023-01-20T07:13:45.956Z,1.90
2023-01-20T07:16:18.658Z,2.38
2023-01-20T07:18:52.844Z,2.00
2023-01-20T07:21:26.644Z,1.80
2023-01-20T07:24:02.860Z,2.55
2023-01-20T07:26:36.688Z,2.08
2023-01-20T07:29:09.289Z,2.38
2023-01-20T07:32:07.483Z,1.75
2023-01-20T07:34:40.103Z,1.60
2023-01-20T07:37:12.703Z,1.63
2023-01-20T07:39:45.407Z,1.63
2023-01-20T07:42:18.999Z,1.73
2023-01-20T07:44:51.582Z,2.25
2023-01-20T07:47:24.320Z,1.80
2023-01-20T07:49:56.889Z,2.40
2023-01-20T07:52:29.427Z,2.00
2023-01-20T07:55:02.129Z,1.83
2023-01-20T07:57:34.822Z,1.65
2023-01-20T08:00:08.147Z,1.40
2023-01-20T08:05:14.408Z,1.45
2023-01-20T08:07:51.474Z,1.38
2023-01-20T08:10:24.183Z,1.48
2023-01-20T08:12:56.952Z,1.52
2023-01-20T08:15:29.507Z,1.30
2023-01-20T08:18:02.121Z,2.13
2023-01-20T08:20:34.645Z,1.65
2023-01-20T08:23:07.370Z,1.45
2023-01-20T08:25:39.921Z,1.60
2023-01-20T08:28:13.114Z,1.73
2023-01-20T08:30:45.701Z,1.80
2023-01-20T08:33:18.355Z,1.77
2023-01-20T08:35:51.013Z,1.85
2023-01-20T08:38:23.561Z,2.00
2023-01-20T08:40:56.196Z,1.95
2023-01-20T08:43:28.765Z,2.20
2023-01-20T08:46:08.617Z,2.90
2023-01-20T08:48:42.538Z,1.67
2023-01-20T08:51:18.993Z,1.70
2023-01-20T08:53:51.866Z,1.98
2023-01-20T08:56:24.606Z,1.92
2023-01-20T08:58:58.309Z,1.70
2023-01-20T09:01:38.182Z,1.95
2023-01-20T09:04:11.511Z,1.83
2023-01-20T09:09:23.412Z,1.63
2023-01-20T09:11:55.977Z,2.33
2023-01-20T09:14:28.791Z,1.85
2023-01-20T09:17:02.969Z,2.85
2023-01-20T09:19:35.525Z,2.22
2023-01-20T09:22:15.805Z,2.17
2023-01-20T09:24:49.133Z,2.15
2023-01-20T09:27:21.826Z,1.90
2023-01-20T09:29:54.447Z,1.83
2023-01-20T09:32:27.165Z,2.00
2023-01-20T09:34:59.649Z,1.67
2023-01-20T09:37:50.602Z,1.30
2023-01-20T09:40:58.523Z,1.40
2023-01-20T09:43:57.103Z,1.20
2023-01-20T09:46:36.569Z,1.50
2023-01-20T09:49:45.876Z,1.23
2023-01-20T09:52:48.436Z,1.30
2023-01-20T09:55:41.324Z,1.30
2023-01-20T09:58:45.487Z,2.47
2023-01-20T10:01:31.090Z,1.73
2023-01-20T10:04:39.114Z,1.60
2023-01-20T10:07:39.686Z,2.15
2023-01-20T10:10:19.114Z,1.60
2023-01-20T10:13:19.889Z,1.95
2023-01-20T10:15:57.534Z,1.48
2023-01-20T10:19:01.927Z,1.38
2023-01-20T10:21:46.148Z,1.83
2023-01-20T10:24:31.438Z,2.13
2023-01-20T10:27:05.361Z,1.90
2023-01-20T10:29:42.061Z,1.60
2023-01-20T10:32:36.788Z,1.38
2023-01-20T10:35:29.450Z,1.60
2023-01-20T10:38:04.649Z,1.20
2023-01-20T10:40:49.377Z,1.33
2023-01-20T10:43:24.389Z,1.63
2023-01-20T10:46:12.555Z,1.50
2023-01-20T10:49:12.077Z,1.67
2023-01-20T10:52:21.519Z,1.70
2023-01-20T10:54:54.108Z,1.70
2023-01-20T10:57:26.893Z,1.85
2023-01-20T11:00:07.228Z,1.80
2023-01-20T11:02:42.187Z,2.03
2023-01-20T11:05:24.808Z,1.70
2023-01-20T11:08:00.150Z,1.80
2023-01-20T11:10:33.957Z,1.90
2023-01-20T11:13:06.569Z,2.80
2023-01-20T11:15:46.889Z,2.75
2023-01-20T11:18:24.022Z,2.20
2023-01-20T11:21:01.352Z,2.78
2023-01-20T11:23:47.820Z,2.58
2023-01-20T11:26:30.549Z,2.35
2023-01-20T11:29:03.099Z,1.35
2023-01-20T11:31:41.702Z,1.33
2023-01-20T11:34:20.130Z,1.50
2023-01-20T11:37:20.149Z,1.40
2023-01-20T11:40:05.017Z,1.60
2023-01-20T11:42:46.508Z,1.88
2023-01-20T11:45:29.854Z,1.80
2023-01-20T11:48:06.443Z,1.75
2023-01-20T11:50:47.505Z,2.00
2023-01-20T11:53:27.396Z,2.03
2023-01-20T11:56:03.445Z,1.67
2023-01-20T11:58:51.714Z,1.90
2023-01-20T12:01:49.290Z,3.58
2023-01-20T12:04:53.162Z,1.83
2023-01-20T12:07:51.535Z,1.88
2023-01-20T12:10:26.377Z,2.22
2023-01-20T12:13:17.080Z,2.00
2023-01-20T12:15:54.919Z,1.77
2023-01-20T12:18:53.467Z,1.92
2023-01-20T12:21:43.397Z,1.50
2023-01-20T12:24:19.771Z,2.00
2023-01-20T12:26:52.539Z,1.58
2023-01-20T12:29:44.931Z,1.70
2023-01-20T12:32:17.476Z,1.40
2023-01-20T12:34:50.390Z,2.58
2023-01-20T12:37:51.195Z,2.10
2023-01-20T12:40:41.390Z,1.35
2023-01-20T12:43:16.820Z,1.17
2023-01-20T12:45:49.447Z,1.27
2023-01-20T12:48:40.533Z,1.40
2023-01-20T12:51:21.303Z,1.60
2023-01-20T12:54:14.915Z,1.90
2023-01-20T12:57:02.488Z,1.75
2023-01-20T13:00:01.942Z,1.52
2023-01-20T13:03:02.709Z,1.20
2023-01-20T13:06:01.432Z,1.40
2023-01-20T13:08:49.636Z,1.30
2023-01-20T13:11:33.307Z,1.20
2023-01-20T13:14:49.360Z,1.42
2023-01-20T13:17:37.254Z,1.23
2023-01-20T13:20:38.865Z,1.10
2023-01-20T13:23:16.156Z,2.13
2023-01-20T13:25:49.772Z,1.48
2023-01-20T13:28:27.817Z,1.42
2023-01-20T13:31:02.315Z,1.52
2023-01-20T13:33:38.886Z,1.65
2023-01-20T13:36:18.656Z,2.00
2023-01-20T13:39:12.071Z,3.00
2023-01-20T13:41:50.558Z,2.50
2023-01-20T13:44:26.960Z,1.95
2023-01-20T13:46:59.598Z,2.20
2023-01-20T13:49:55.223Z,1.88
2023-01-20T13:52:52.682Z,1.95
2023-01-20T13:55:51.134Z,1.58
2023-01-20T13:58:32.106Z,3.38
2023-01-20T14:01:06.581Z,1.88
2023-01-20T14:03:40.492Z,1.95
2023-01-20T14:06:13.357Z,2.20
2023-01-20T14:08:53.166Z,2.40
2023-01-20T14:11:27.568Z,2.53
2023-01-20T14:14:08.265Z,2.97
2023-01-20T14:16:42.328Z,2.95
2023-01-20T14:19:29.966Z,1.50
2023-01-20T14:22:20.749Z,2.05
2023-01-20T14:24:57.543Z,2.67
2023-01-20T14:27:32.502Z,2.42
2023-01-20T14:30:26.395Z,1.85
2023-01-20T14:32:58.954Z,1.58
2023-01-20T14:35:34.009Z,1.65
2023-01-20T14:38:06.647Z,1.30
2023-01-20T14:40:43.173Z,2.92
2023-01-20T14:43:22.042Z,2.03
2023-01-20T14:45:54.905Z,1.35
2023-01-20T14:48:34.354Z,1.83
2023-01-20T14:51:09.932Z,1.40
2023-01-20T14:53:44.846Z,2.10
2023-01-20T14:56:22.164Z,1.95
2023-01-20T14:58:56.136Z,1.63
2023-01-20T15:01:28.884Z,2.10
2023-01-20T15:04:03.624Z,2.35
2023-01-20T15:06:36.233Z,1.63
2023-01-20T15:09:27.783Z,1.85
2023-01-20T15:12:32.452Z,2.22
2023-01-20T15:15:12.670Z,1.77
2023-01-20T15:18:17.866Z,1.70
2023-01-20T15:20:52.760Z,2.10
2023-01-20T15:23:39.089Z,2.58
2023-01-20T15:26:26.016Z,1.70
2023-01-20T15:28:59.260Z,1.55
2023-01-20T15:31:31.850Z,2.00
2023-01-20T15:34:04.486Z,1.75
2023-01-20T15:36:39.835Z,1.65
2023-01-20T15:39:20.676Z,2.22
2023-01-20T15:42:02.811Z,2.30
2023-01-20T15:44:35.812Z,2.40
2023-01-20T15:47:31.165Z,2.03
2023-01-20T15:50:04.633Z,2.50
2023-01-20T15:55:18.779Z,2.22
2023-01-20T15:57:52.632Z,1.95
2023-01-20T16:00:25.509Z,2.20
2023-01-20T16:02:58.171Z,2.83
2023-01-20T16:05:30.863Z,2.90
2023-01-20T16:08:03.451Z,2.17
2023-01-20T16:10:36.429Z,2.33
2023-01-20T16:13:12.147Z,2.72
2023-01-20T16:15:44.969Z,2.42
2023-01-20T16:18:18.744Z,1.90
2023-01-20T16:20:52.375Z,2.08
2023-01-20T16:23:26.469Z,2.28
2023-01-20T16:25:59.241Z,2.42
2023-01-20T16:28:31.881Z,2.10
2023-01-20T16:31:07.406Z,2.47
2023-01-20T16:33:39.980Z,2.38
2023-01-20T16:36:20.347Z,2.07
2023-01-20T16:38:53.504Z,3.28
2023-01-20T16:41:28.982Z,2.30
2023-01-20T16:44:01.688Z,2.30
2023-01-20T16:46:34.595Z,1.85
2023-01-20T16:49:07.217Z,3.15
2023-01-20T16:51:39.926Z,2.60
2023-01-20T16:54:12.457Z,2.92
2023-01-20T16:56:45.194Z,2.00
2023-01-20T16:59:18.105Z,1.73
2023-01-20T17:01:50.611Z,2.20
2023-01-20T17:04:23.305Z,1.80
2023-01-20T17:06:55.992Z,1.75
2023-01-20T17:09:28.563Z,2.10
2023-01-20T17:12:01.299Z,1.75
2023-01-20T17:14:36.054Z,1.85
2023-01-20T17:17:11.698Z,2.00
2023-01-20T17:19:44.349Z,2.20
2023-01-20T17:22:17.746Z,2.17
2023-01-20T17:24:50.350Z,2.00
2023-01-20T17:27:22.929Z,2.38
2023-01-20T17:29:55.531Z,1.90
2023-01-20T17:32:28.047Z,2.58
2023-01-20T17:35:00.601Z,1.97
2023-01-20T17:37:33.166Z,2.15
2023-01-20T17:40:06.317Z,1.92
2023-01-20T17:42:39.202Z,1.67
2023-01-20T17:45:12.421Z,1.60
2023-01-20T17:47:45.066Z,3.33
2023-01-20T17:50:17.962Z,2.05
2023-01-20T17:52:51.453Z,1.98
2023-01-20T17:57:58.911Z,1.40
2023-01-20T18:00:31.507Z,2.00
2023-01-20T18:03:04.094Z,1.02
2023-01-20T18:05:38.037Z,1.50
2023-01-20T18:08:12.714Z,1.27
2023-01-20T18:10:45.235Z,1.00
2023-01-20T18:13:17.826Z,2.00
2023-01-20T18:15:50.396Z,1.50
2023-01-20T18:18:24.709Z,1.73
2023-01-20T18:20:58.688Z,1.48
2023-01-20T18:23:31.163Z,1.27
2023-01-20T18:26:05.400Z,1.40
2023-01-20T18:28:38.724Z,1.67
2023-01-20T18:31:19.837Z,1.35
2023-01-20T18:33:55.110Z,1.40
2023-01-20T18:36:33.236Z,1.70
2023-01-20T18:39:16.247Z,1.30
2023-01-20T18:41:49.529Z,1.40
2023-01-20T18:49:28.531Z,1.30
2023-01-20T18:52:01.070Z,1.23
2023-01-20T18:54:34.641Z,1.50
2023-01-20T18:57:09.007Z,1.33
2023-01-20T18:59:42.598Z,1.45
2023-01-20T19:04:47.519Z,1.58
2023-01-20T19:07:23.079Z,1.80
2023-01-20T19:09:56.076Z,1.63
2023-01-20T19:12:28.768Z,1.48
2023-01-20T19:15:06.120Z,1.75
2023-01-20T19:17:38.735Z,1.45
2023-01-20T19:20:11.825Z,1.67
2023-01-20T19:22:44.345Z,1.45
2023-01-20T19:25:17.022Z,1.83
2023-01-20T19:27:49.530Z,2.90
2023-01-20T19:30:22.326Z,1.70
2023-01-20T19:32:54.927Z,2.15
2023-01-20T19:35:28.958Z,1.60
2023-01-20T19:38:01.577Z,1.73
2023-01-20T19:40:34.154Z,1.88
2023-01-20T19:43:06.793Z,2.08
2023-01-20T19:45:45.619Z,1.80
2023-01-20T19:48:18.647Z,1.92
2023-01-20T19:50:51.164Z,1.88
2023-01-20T19:53:23.660Z,2.40
2023-01-20T19:56:04.649Z,2.10
2023-01-20T19:58:38.186Z,1.45
2023-01-20T20:01:18.231Z,2.10
2023-01-20T20:03:52.533Z,2.20
2023-01-20T20:06:33.388Z,1.55
2023-01-20T20:09:09.812Z,1.63
2023-01-20T20:11:42.483Z,2.40
2023-01-20T20:14:17.407Z,2.65
2023-01-20T20:16:50.323Z,2.00
2023-01-20T20:19:23.141Z,2.70
2023-01-20T20:21:56.835Z,2.90
2023-01-20T20:24:29.477Z,1.90
2023-01-20T20:27:02.162Z,2.55
2023-01-20T20:29:34.704Z,2.38
2023-01-20T20:32:08.107Z,2.67
2023-01-20T20:37:12.969Z,3.03
2023-01-20T20:39:45.943Z,2.57
2023-01-20T20:42:18.479Z,2.50
2023-01-20T20:44:51.017Z,1.80
2023-01-20T20:47:25.211Z,2.13
2023-01-20T20:49:59.491Z,2.88
2023-01-20T20:52:32.042Z,2.17
2023-01-20T20:55:05.710Z,2.28
2023-01-20T20:57:38.347Z,1.80
2023-01-20T21:00:11.793Z,1.92
2023-01-20T21:02:44.485Z,1.33
2023-01-20T21:05:19.103Z,1.00
2023-01-20T21:07:51.872Z,1.50
2023-01-20T21:10:24.523Z,1.10
2023-01-20T21:12:57.178Z,0.82
2023-01-20T21:15:30.782Z,1.00
2023-01-20T21:18:03.609Z,1.10
2023-01-20T21:20:36.299Z,0.80
2023-01-20T21:23:09.115Z,1.00
2023-01-20T21:25:41.675Z,1.02
2023-01-20T21:28:14.231Z,0.77
2023-01-20T21:30:47.111Z,0.90
2023-01-20T21:33:19.679Z,1.15
2023-01-20T21:35:52.253Z,0.88
2023-01-20T21:38:24.858Z,0.70
2023-01-20T21:41:00.291Z,1.00
2023-01-20T21:43:52.847Z,1.25
2023-01-20T21:46:27.658Z,0.98
2023-01-20T21:49:18.779Z,1.08
2023-01-20T21:52:09.444Z,1.45
2023-01-20T21:54:42.190Z,1.02
2023-01-20T21:57:15.085Z,1.02
2023-01-20T21:59:48.283Z,0.75
2023-01-20T22:02:20.830Z,1.05
2023-01-20T22:04:53.389Z,0.87
2023-01-20T22:07:25.972Z,0.87
2023-01-20T22:10:01.353Z,1.00
2023-01-20T22:12:35.785Z,0.77
2023-01-20T22:15:08.771Z,1.02
2023-01-20T22:17:41.759Z,0.80
2023-01-20T22:20:14.895Z,0.70
2023-01-20T22:25:20.075Z,0.98
2023-01-20T22:27:52.718Z,0.70
2023-01-20T22:30:25.465Z,0.80
2023-01-20T22:32:57.987Z,0.82
2023-01-20T22:35:31.005Z,0.80
2023-01-20T22:38:03.671Z,0.90
2023-01-20T22:40:36.357Z,0.82
2023-01-20T22:43:08.977Z,0.88
2023-01-20T22:45:41.718Z,0.80
2023-01-20T22:48:14.335Z,0.80
2023-01-20T22:50:46.980Z,0.80
2023-01-20T22:53:19.700Z,1.00
2023-01-20T22:56:00.644Z,0.90
2023-01-20T22:58:33.885Z,1.00
2023-01-20T23:01:15.796Z,1.10
2023-01-20T23:03:49.353Z,1.00
2023-01-20T23:06:22.735Z,0.88
2023-01-20T23:11:28.295Z,1.17
2023-01-20T23:14:01.010Z,1.00
2023-01-20T23:16:33.614Z,1.40
2023-01-20T23:19:07.132Z,1.20
2023-01-20T23:24:12.034Z,1.10
2023-01-20T23:26:44.519Z,1.27
2023-01-20T23:29:17.076Z,1.07
2023-01-20T23:31:49.830Z,0.82
2023-01-20T23:34:22.531Z,0.90
2023-01-20T23:36:55.309Z,0.63
2023-01-20T23:39:27.951Z,0.60
2023-01-20T23:42:00.486Z,0.80
2023-01-20T23:44:33.070Z,0.90
2023-01-20T23:47:07.732Z,0.80
2023-01-20T23:49:40.400Z,0.70
2023-01-20T23:52:12.924Z,0.88
2023-01-20T23:54:45.544Z,0.60
2023-01-20T23:57:18.458Z,0.80
2023-01-20T23:59:50.948Z,0.60
